Terminal Aerodrome Forecast
Issued by NWS

Home | Current Version | Previous Version | Text Only | Print | Product List | Glossary On
Versions: 1 2 3 4 5 6 7 8 9 10 11 12 13 14 15 16 17 18 19 20 21 22 23 24
792
FTUS44 KMAF 221700
TAFINK
TAF
KINK 221733Z 2218/2318 11008KT P6SM OVC010
     FM222100 11010KT P6SM FEW200
     FM230000 14017KT P6SM BKN040 PROB30 2306/2312 5SM TSRA BKN030CB
     FM231200 19012KT P6SM SCT200=

USA.gov is the U.S. government's official web portal to all federal, state and local government web resources and services.